sensor_id;sensor_type;location;lat;lon;timestamp;P1;durP1;ratioP1;P2;durP2;ratioP2
13797;SDS011;6970;51.340;3.240;2023-09-18T00:01:57;10.43;;;9.67;;
13797;SDS011;6970;51.340;3.240;2023-09-18T00:04:25;11.33;;;10.43;;
13797;SDS011;6970;51.340;3.240;2023-09-18T00:06:52;10.83;;;9.83;;
13797;SDS011;6970;51.340;3.240;2023-09-18T00:09:22;11.43;;;10.23;;
13797;SDS011;6970;51.340;3.240;2023-09-18T00:12:01;9.67;;;8.77;;
13797;SDS011;6970;51.340;3.240;2023-09-18T00:14:34;10.03;;;8.93;;
13797;SDS011;6970;51.340;3.240;2023-09-18T00:17:03;9.07;;;8.30;;
13797;SDS011;6970;51.340;3.240;2023-09-18T00:19:31;7.43;;;6.73;;
13797;SDS011;6970;51.340;3.240;2023-09-18T00:22:06;7.83;;;7.03;;
13797;SDS011;6970;51.340;3.240;2023-09-18T00:24:34;7.80;;;6.80;;
13797;SDS011;6970;51.340;3.240;2023-09-18T00:27:02;6.60;;;6.00;;
13797;SDS011;6970;51.340;3.240;2023-09-18T00:29:30;7.40;;;6.03;;
13797;SDS011;6970;51.340;3.240;2023-09-18T00:31:59;6.17;;;5.67;;
13797;SDS011;6970;51.340;3.240;2023-09-18T00:34:27;6.80;;;6.20;;
13797;SDS011;6970;51.340;3.240;2023-09-18T00:37:01;5.90;;;5.30;;
13797;SDS011;6970;51.340;3.240;2023-09-18T00:42:01;5.37;;;4.87;;
13797;SDS011;6970;51.340;3.240;2023-09-18T00:44:28;5.00;;;4.27;;
13797;SDS011;6970;51.340;3.240;2023-09-18T00:46:58;5.00;;;4.60;;
13797;SDS011;6970;51.340;3.240;2023-09-18T00:49:25;4.43;;;4.10;;
13797;SDS011;6970;51.340;3.240;2023-09-18T00:51:56;5.53;;;4.20;;
13797;SDS011;6970;51.340;3.240;2023-09-18T00:54:23;4.43;;;4.10;;
13797;SDS011;6970;51.340;3.240;2023-09-18T00:59:24;4.30;;;3.90;;
13797;SDS011;6970;51.340;3.240;2023-09-18T01:04:25;5.37;;;4.87;;
13797;SDS011;6970;51.340;3.240;2023-09-18T01:07:01;4.67;;;4.27;;
13797;SDS011;6970;51.340;3.240;2023-09-18T01:09:30;5.27;;;4.77;;
13797;SDS011;6970;51.340;3.240;2023-09-18T01:12:03;4.70;;;4.03;;
13797;SDS011;6970;51.340;3.240;2023-09-18T01:15:15;5.83;;;4.20;;
13797;SDS011;6970;51.340;3.240;2023-09-18T01:17:50;4.30;;;3.90;;
13797;SDS011;6970;51.340;3.240;2023-09-18T01:20:18;4.23;;;3.83;;
13797;SDS011;6970;51.340;3.240;2023-09-18T01:22:46;3.90;;;3.57;;
13797;SDS011;6970;51.340;3.240;2023-09-18T01:27:47;4.17;;;3.77;;
13797;SDS011;6970;51.340;3.240;2023-09-18T01:30:14;3.67;;;3.37;;
13797;SDS011;6970;51.340;3.240;2023-09-18T01:32:43;4.47;;;3.57;;
13797;SDS011;6970;51.340;3.240;2023-09-18T01:35:11;4.47;;;4.00;;
13797;SDS011;6970;51.340;3.240;2023-09-18T01:37:42;4.93;;;3.53;;
13797;SDS011;6970;51.340;3.240;2023-09-18T01:40:12;4.40;;;4.00;;
13797;SDS011;6970;51.340;3.240;2023-09-18T01:45:11;4.50;;;3.47;;
13797;SDS011;6970;51.340;3.240;2023-09-18T01:47:38;4.90;;;3.50;;
13797;SDS011;6970;51.340;3.240;2023-09-18T01:52:43;4.03;;;3.30;;
13797;SDS011;6970;51.340;3.240;2023-09-18T01:57:42;3.77;;;3.27;;
13797;SDS011;6970;51.340;3.240;2023-09-18T02:00:10;6.23;;;3.13;;
13797;SDS011;6970;51.340;3.240;2023-09-18T02:02:42;4.00;;;3.70;;
13797;SDS011;6970;51.340;3.240;2023-09-18T02:05:29;4.40;;;3.60;;
13797;SDS011;6970;51.340;3.240;2023-09-18T02:08:00;3.83;;;3.10;;
13797;SDS011;6970;51.340;3.240;2023-09-18T02:10:28;4.30;;;3.90;;
13797;SDS011;6970;51.340;3.240;2023-09-18T02:15:28;4.83;;;4.40;;
13797;SDS011;6970;51.340;3.240;2023-09-18T02:17:58;6.00;;;4.30;;
13797;SDS011;6970;51.340;3.240;2023-09-18T02:20:25;4.63;;;3.87;;
13797;SDS011;6970;51.340;3.240;2023-09-18T02:22:53;4.40;;;4.10;;
13797;SDS011;6970;51.340;3.240;2023-09-18T02:25:20;4.50;;;4.10;;
13797;SDS011;6970;51.340;3.240;2023-09-18T02:30:20;4.60;;;4.13;;
13797;SDS011;6970;51.340;3.240;2023-09-18T02:32:53;4.60;;;4.20;;
13797;SDS011;6970;51.340;3.240;2023-09-18T02:35:22;5.37;;;4.80;;
13797;SDS011;6970;51.340;3.240;2023-09-18T02:40:26;4.80;;;4.40;;
13797;SDS011;6970;51.340;3.240;2023-09-18T02:45:26;7.37;;;5.43;;
13797;SDS011;6970;51.340;3.240;2023-09-18T02:47:54;5.77;;;5.27;;
13797;SDS011;6970;51.340;3.240;2023-09-18T02:50:21;5.80;;;5.20;;
13797;SDS011;6970;51.340;3.240;2023-09-18T02:52:49;5.67;;;5.27;;
13797;SDS011;6970;51.340;3.240;2023-09-18T02:55:19;6.20;;;4.97;;
13797;SDS011;6970;51.340;3.240;2023-09-18T03:00:18;5.30;;;4.80;;
13797;SDS011;6970;51.340;3.240;2023-09-18T03:03:08;7.30;;;6.70;;
13797;SDS011;6970;51.340;3.240;2023-09-18T03:05:43;7.27;;;5.77;;
13797;SDS011;6970;51.340;3.240;2023-09-18T03:08:12;6.77;;;6.17;;
13797;SDS011;6970;51.340;3.240;2023-09-18T03:10:42;6.23;;;5.70;;
13797;SDS011;6970;51.340;3.240;2023-09-18T03:13:15;5.67;;;5.10;;
13797;SDS011;6970;51.340;3.240;2023-09-18T03:18:17;5.80;;;5.30;;
13797;SDS011;6970;51.340;3.240;2023-09-18T03:20:45;6.37;;;4.90;;
13797;SDS011;6970;51.340;3.240;2023-09-18T03:23:15;6.33;;;4.83;;
13797;SDS011;6970;51.340;3.240;2023-09-18T03:25:47;5.80;;;4.70;;
13797;SDS011;6970;51.340;3.240;2023-09-18T03:28:20;5.73;;;5.00;;
13797;SDS011;6970;51.340;3.240;2023-09-18T03:33:20;4.80;;;4.33;;
13797;SDS011;6970;51.340;3.240;2023-09-18T03:35:52;5.07;;;4.33;;
13797;SDS011;6970;51.340;3.240;2023-09-18T03:38:27;5.43;;;5.03;;
13797;SDS011;6970;51.340;3.240;2023-09-18T03:41:08;5.10;;;4.60;;
13797;SDS011;6970;51.340;3.240;2023-09-18T03:46:07;5.40;;;4.90;;
13797;SDS011;6970;51.340;3.240;2023-09-18T03:51:05;5.57;;;5.07;;
13797;SDS011;6970;51.340;3.240;2023-09-18T03:53:34;5.03;;;4.63;;
13797;SDS011;6970;51.340;3.240;2023-09-18T03:56:01;4.60;;;4.20;;
13797;SDS011;6970;51.340;3.240;2023-09-18T03:58:28;4.70;;;4.30;;
13797;SDS011;6970;51.340;3.240;2023-09-18T04:00:56;5.13;;;4.50;;
13797;SDS011;6970;51.340;3.240;2023-09-18T04:03:23;6.33;;;4.33;;
13797;SDS011;6970;51.340;3.240;2023-09-18T04:05:52;3.90;;;3.60;;
13797;SDS011;6970;51.340;3.240;2023-09-18T04:10:49;7.87;;;4.30;;
13797;SDS011;6970;51.340;3.240;2023-09-18T04:13:16;4.20;;;3.77;;
13797;SDS011;6970;51.340;3.240;2023-09-18T04:18:14;5.50;;;3.90;;
13797;SDS011;6970;51.340;3.240;2023-09-18T04:20:43;4.37;;;3.90;;
13797;SDS011;6970;51.340;3.240;2023-09-18T04:23:23;4.70;;;3.53;;
13797;SDS011;6970;51.340;3.240;2023-09-18T04:25:53;4.13;;;3.57;;
13797;SDS011;6970;51.340;3.240;2023-09-18T04:28:23;4.30;;;3.53;;
13797;SDS011;6970;51.340;3.240;2023-09-18T04:30:53;4.07;;;3.67;;
13797;SDS011;6970;51.340;3.240;2023-09-18T04:33:22;3.57;;;3.23;;
13797;SDS011;6970;51.340;3.240;2023-09-18T04:35:49;3.80;;;3.40;;
13797;SDS011;6970;51.340;3.240;2023-09-18T04:38:16;3.53;;;3.23;;
13797;SDS011;6970;51.340;3.240;2023-09-18T04:40:49;5.53;;;3.23;;
13797;SDS011;6970;51.340;3.240;2023-09-18T04:43:26;3.63;;;2.57;;
13797;SDS011;6970;51.340;3.240;2023-09-18T04:45:58;4.30;;;2.90;;
13797;SDS011;6970;51.340;3.240;2023-09-18T04:48:25;3.63;;;3.07;;
13797;SDS011;6970;51.340;3.240;2023-09-18T04:50:52;2.10;;;1.90;;
13797;SDS011;6970;51.340;3.240;2023-09-18T04:53:22;4.37;;;2.30;;
13797;SDS011;6970;51.340;3.240;2023-09-18T04:55:50;3.17;;;2.20;;
13797;SDS011;6970;51.340;3.240;2023-09-18T05:00:54;2.97;;;2.33;;
13797;SDS011;6970;51.340;3.240;2023-09-18T05:03:22;5.93;;;2.43;;
13797;SDS011;6970;51.340;3.240;2023-09-18T05:05:53;2.37;;;2.17;;
13797;SDS011;6970;51.340;3.240;2023-09-18T05:08:20;4.00;;;2.10;;
13797;SDS011;6970;51.340;3.240;2023-09-18T05:13:21;2.60;;;2.10;;
13797;SDS011;6970;51.340;3.240;2023-09-18T05:15:50;2.50;;;1.87;;
13797;SDS011;6970;51.340;3.240;2023-09-18T05:18:19;5.03;;;2.57;;
13797;SDS011;6970;51.340;3.240;2023-09-18T05:20:48;2.50;;;2.30;;
13797;SDS011;6970;51.340;3.240;2023-09-18T05:23:16;3.20;;;2.40;;
13797;SDS011;6970;51.340;3.240;2023-09-18T05:25:47;3.00;;;2.20;;
13797;SDS011;6970;51.340;3.240;2023-09-18T05:28:16;3.87;;;2.30;;
13797;SDS011;6970;51.340;3.240;2023-09-18T05:30:43;4.13;;;3.10;;
13797;SDS011;6970;51.340;3.240;2023-09-18T05:33:13;3.63;;;2.90;;
13797;SDS011;6970;51.340;3.240;2023-09-18T05:35:44;3.20;;;2.70;;
13797;SDS011;6970;51.340;3.240;2023-09-18T05:38:13;3.87;;;3.00;;
13797;SDS011;6970;51.340;3.240;2023-09-18T05:40:41;3.10;;;2.57;;
13797;SDS011;6970;51.340;3.240;2023-09-18T05:43:08;6.03;;;2.73;;
13797;SDS011;6970;51.340;3.240;2023-09-18T05:45:36;5.53;;;2.33;;
13797;SDS011;6970;51.340;3.240;2023-09-18T05:48:09;3.10;;;2.87;;
13797;SDS011;6970;51.340;3.240;2023-09-18T05:50:37;2.93;;;2.53;;
13797;SDS011;6970;51.340;3.240;2023-09-18T05:53:07;6.07;;;2.40;;
13797;SDS011;6970;51.340;3.240;2023-09-18T05:55:35;3.33;;;2.43;;
13797;SDS011;6970;51.340;3.240;2023-09-18T05:58:03;2.73;;;2.53;;
13797;SDS011;6970;51.340;3.240;2023-09-18T06:00:34;2.47;;;2.23;;
13797;SDS011;6970;51.340;3.240;2023-09-18T06:03:02;3.40;;;2.07;;
13797;SDS011;6970;51.340;3.240;2023-09-18T06:08:02;3.67;;;2.50;;
13797;SDS011;6970;51.340;3.240;2023-09-18T06:10:29;3.27;;;2.60;;
13797;SDS011;6970;51.340;3.240;2023-09-18T06:12:59;3.77;;;3.00;;
13797;SDS011;6970;51.340;3.240;2023-09-18T06:15:33;4.27;;;2.47;;
13797;SDS011;6970;51.340;3.240;2023-09-18T06:20:32;3.60;;;2.27;;
13797;SDS011;6970;51.340;3.240;2023-09-18T06:23:06;3.17;;;2.90;;
13797;SDS011;6970;51.340;3.240;2023-09-18T06:25:33;6.50;;;2.87;;
13797;SDS011;6970;51.340;3.240;2023-09-18T06:30:32;3.53;;;2.73;;
13797;SDS011;6970;51.340;3.240;2023-09-18T06:33:03;2.30;;;2.07;;
13797;SDS011;6970;51.340;3.240;2023-09-18T06:35:32;2.63;;;2.00;;
13797;SDS011;6970;51.340;3.240;2023-09-18T06:38:02;4.27;;;2.50;;
13797;SDS011;6970;51.340;3.240;2023-09-18T06:40:31;2.23;;;2.03;;
13797;SDS011;6970;51.340;3.240;2023-09-18T06:45:31;3.03;;;2.00;;
13797;SDS011;6970;51.340;3.240;2023-09-18T06:48:01;3.87;;;2.30;;
13797;SDS011;6970;51.340;3.240;2023-09-18T06:50:29;4.50;;;2.23;;
13797;SDS011;6970;51.340;3.240;2023-09-18T06:52:58;2.53;;;2.17;;
13797;SDS011;6970;51.340;3.240;2023-09-18T06:55:27;2.53;;;2.17;;
13797;SDS011;6970;51.340;3.240;2023-09-18T07:02:58;2.17;;;1.47;;
13797;SDS011;6970;51.340;3.240;2023-09-18T07:05:26;2.30;;;2.10;;
13797;SDS011;6970;51.340;3.240;2023-09-18T07:07:53;3.33;;;2.00;;
13797;SDS011;6970;51.340;3.240;2023-09-18T07:12:54;3.13;;;2.07;;
13797;SDS011;6970;51.340;3.240;2023-09-18T07:15:21;2.13;;;2.00;;
13797;SDS011;6970;51.340;3.240;2023-09-18T07:17:48;4.67;;;2.23;;
13797;SDS011;6970;51.340;3.240;2023-09-18T07:20:21;4.90;;;2.00;;
13797;SDS011;6970;51.340;3.240;2023-09-18T07:22:51;2.27;;;2.07;;
13797;SDS011;6970;51.340;3.240;2023-09-18T07:25:19;3.40;;;2.20;;
13797;SDS011;6970;51.340;3.240;2023-09-18T07:27:46;3.77;;;2.37;;
13797;SDS011;6970;51.340;3.240;2023-09-18T07:30:17;3.87;;;2.87;;
13797;SDS011;6970;51.340;3.240;2023-09-18T07:32:47;3.50;;;2.23;;
13797;SDS011;6970;51.340;3.240;2023-09-18T07:35:17;3.93;;;2.70;;
13797;SDS011;6970;51.340;3.240;2023-09-18T07:37:49;3.67;;;3.13;;
13797;SDS011;6970;51.340;3.240;2023-09-18T07:40:16;3.07;;;2.53;;
13797;SDS011;6970;51.340;3.240;2023-09-18T07:42:45;2.70;;;2.50;;
13797;SDS011;6970;51.340;3.240;2023-09-18T07:45:13;3.73;;;2.87;;
13797;SDS011;6970;51.340;3.240;2023-09-18T07:47:43;3.23;;;2.93;;
13797;SDS011;6970;51.340;3.240;2023-09-18T07:52:45;3.10;;;2.90;;
13797;SDS011;6970;51.340;3.240;2023-09-18T07:55:13;2.73;;;2.50;;
13797;SDS011;6970;51.340;3.240;2023-09-18T08:00:12;4.40;;;2.70;;
13797;SDS011;6970;51.340;3.240;2023-09-18T08:02:41;4.20;;;2.77;;
13797;SDS011;6970;51.340;3.240;2023-09-18T08:05:11;2.57;;;2.37;;
13797;SDS011;6970;51.340;3.240;2023-09-18T08:07:38;2.57;;;2.20;;
13797;SDS011;6970;51.340;3.240;2023-09-18T08:10:09;3.80;;;2.30;;
13797;SDS011;6970;51.340;3.240;2023-09-18T08:15:06;2.70;;;2.00;;
13797;SDS011;6970;51.340;3.240;2023-09-18T08:17:36;4.72;;;2.50;;
13797;SDS011;6970;51.340;3.240;2023-09-18T08:22:39;4.80;;;2.22;;
13797;SDS011;6970;51.340;3.240;2023-09-18T08:27:41;4.35;;;2.33;;
13797;SDS011;6970;51.340;3.240;2023-09-18T08:30:11;4.20;;;2.08;;
13797;SDS011;6970;51.340;3.240;2023-09-18T08:32:40;4.05;;;1.90;;
13797;SDS011;6970;51.340;3.240;2023-09-18T08:35:11;2.70;;;2.50;;
13797;SDS011;6970;51.340;3.240;2023-09-18T08:37:40;4.75;;;2.30;;
13797;SDS011;6970;51.340;3.240;2023-09-18T08:40:14;2.72;;;2.00;;
13797;SDS011;6970;51.340;3.240;2023-09-18T08:42:47;3.15;;;2.20;;
13797;SDS011;6970;51.340;3.240;2023-09-18T08:46:00;2.80;;;1.90;;
13797;SDS011;6970;51.340;3.240;2023-09-18T08:48:19;5.72;;;2.38;;
13797;SDS011;6970;51.340;3.240;2023-09-18T08:50:47;2.53;;;2.10;;
13797;SDS011;6970;51.340;3.240;2023-09-18T08:53:15;2.72;;;2.22;;
13797;SDS011;6970;51.340;3.240;2023-09-18T08:55:42;3.60;;;2.05;;
13797;SDS011;6970;51.340;3.240;2023-09-18T08:58:09;3.00;;;2.33;;
13797;SDS011;6970;51.340;3.240;2023-09-18T09:00:37;5.22;;;2.70;;
13797;SDS011;6970;51.340;3.240;2023-09-18T09:03:06;3.78;;;2.03;;
13797;SDS011;6970;51.340;3.240;2023-09-18T09:05:34;2.60;;;2.40;;
13797;SDS011;6970;51.340;3.240;2023-09-18T09:08:01;3.30;;;2.10;;
13797;SDS011;6970;51.340;3.240;2023-09-18T09:10:28;3.58;;;2.42;;
13797;SDS011;6970;51.340;3.240;2023-09-18T09:12:59;2.92;;;2.53;;
13797;SDS011;6970;51.340;3.240;2023-09-18T09:15:28;2.55;;;2.35;;
13797;SDS011;6970;51.340;3.240;2023-09-18T09:18:03;5.85;;;2.67;;
13797;SDS011;6970;51.340;3.240;2023-09-18T09:20:34;4.15;;;2.38;;
13797;SDS011;6970;51.340;3.240;2023-09-18T09:23:04;3.35;;;2.10;;
13797;SDS011;6970;51.340;3.240;2023-09-18T09:25:38;2.85;;;2.00;;
13797;SDS011;6970;51.340;3.240;2023-09-18T09:28:07;4.32;;;2.38;;
13797;SDS011;6970;51.340;3.240;2023-09-18T09:33:06;3.92;;;2.47;;
13797;SDS011;6970;51.340;3.240;2023-09-18T09:35:37;3.92;;;2.58;;
13797;SDS011;6970;51.340;3.240;2023-09-18T09:38:10;2.88;;;2.45;;
13797;SDS011;6970;51.340;3.240;2023-09-18T09:40:40;4.35;;;2.75;;
13797;SDS011;6970;51.340;3.240;2023-09-18T09:43:10;3.08;;;2.78;;
13797;SDS011;6970;51.340;3.240;2023-09-18T09:45:41;5.22;;;2.50;;
13797;SDS011;6970;51.340;3.240;2023-09-18T09:48:09;3.55;;;2.90;;
13797;SDS011;6970;51.340;3.240;2023-09-18T09:50:44;3.35;;;2.72;;
13797;SDS011;6970;51.340;3.240;2023-09-18T09:53:13;4.93;;;3.05;;
13797;SDS011;6970;51.340;3.240;2023-09-18T09:55:42;4.78;;;2.90;;
13797;SDS011;6970;51.340;3.240;2023-09-18T09:58:12;3.92;;;3.10;;
13797;SDS011;6970;51.340;3.240;2023-09-18T10:03:19;2.60;;;2.35;;
13797;SDS011;6970;51.340;3.240;2023-09-18T10:05:48;3.10;;;2.42;;
13797;SDS011;6970;51.340;3.240;2023-09-18T10:08:22;4.53;;;2.45;;
13797;SDS011;6970;51.340;3.240;2023-09-18T10:10:54;3.97;;;2.60;;
13797;SDS011;6970;51.340;3.240;2023-09-18T10:13:27;3.38;;;2.30;;
13797;SDS011;6970;51.340;3.240;2023-09-18T10:16:09;4.50;;;2.55;;
13797;SDS011;6970;51.340;3.240;2023-09-18T10:18:56;4.18;;;2.90;;
13797;SDS011;6970;51.340;3.240;2023-09-18T10:21:49;2.55;;;2.13;;
13797;SDS011;6970;51.340;3.240;2023-09-18T10:24:34;2.97;;;2.70;;
13797;SDS011;6970;51.340;3.240;2023-09-18T10:27:07;4.25;;;2.53;;
13797;SDS011;6970;51.340;3.240;2023-09-18T10:29:43;4.88;;;2.33;;
13797;SDS011;6970;51.340;3.240;2023-09-18T10:39:48;2.50;;;2.30;;
13797;SDS011;6970;51.340;3.240;2023-09-18T10:42:18;2.08;;;1.88;;
13797;SDS011;6970;51.340;3.240;2023-09-18T10:49:53;2.47;;;1.80;;
13797;SDS011;6970;51.340;3.240;2023-09-18T10:52:21;3.13;;;2.22;;
13797;SDS011;6970;51.340;3.240;2023-09-18T10:57:21;3.42;;;2.10;;
13797;SDS011;6970;51.340;3.240;2023-09-18T11:02:23;2.83;;;2.10;;
13797;SDS011;6970;51.340;3.240;2023-09-18T11:04:54;3.10;;;1.73;;
13797;SDS011;6970;51.340;3.240;2023-09-18T11:07:23;2.58;;;2.00;;
13797;SDS011;6970;51.340;3.240;2023-09-18T11:09:54;2.28;;;1.80;;
13797;SDS011;6970;51.340;3.240;2023-09-18T11:12:23;4.00;;;2.20;;
13797;SDS011;6970;51.340;3.240;2023-09-18T11:15:25;2.67;;;2.08;;
13797;SDS011;6970;51.340;3.240;2023-09-18T11:18:01;2.28;;;1.90;;
13797;SDS011;6970;51.340;3.240;2023-09-18T11:23:17;2.53;;;1.67;;
13797;SDS011;6970;51.340;3.240;2023-09-18T11:25:45;1.92;;;1.73;;
13797;SDS011;6970;51.340;3.240;2023-09-18T11:28:15;3.22;;;2.17;;
13797;SDS011;6970;51.340;3.240;2023-09-18T11:30:55;2.58;;;1.70;;
13797;SDS011;6970;51.340;3.240;2023-09-18T11:33:36;1.75;;;1.65;;
13797;SDS011;6970;51.340;3.240;2023-09-18T11:36:08;2.03;;;1.70;;
13797;SDS011;6970;51.340;3.240;2023-09-18T11:38:56;2.42;;;1.80;;
13797;SDS011;6970;51.340;3.240;2023-09-18T11:41:33;2.45;;;1.73;;
13797;SDS011;6970;51.340;3.240;2023-09-18T11:46:51;2.38;;;2.00;;
13797;SDS011;6970;51.340;3.240;2023-09-18T11:52:02;2.85;;;1.83;;
13797;SDS011;6970;51.340;3.240;2023-09-18T11:57:03;1.95;;;1.63;;
13797;SDS011;6970;51.340;3.240;2023-09-18T11:59:34;1.75;;;1.63;;
13797;SDS011;6970;51.340;3.240;2023-09-18T12:02:10;2.60;;;1.83;;
13797;SDS011;6970;51.340;3.240;2023-09-18T12:04:40;3.17;;;1.70;;
13797;SDS011;6970;51.340;3.240;2023-09-18T12:07:10;2.05;;;1.95;;
13797;SDS011;6970;51.340;3.240;2023-09-18T12:09:39;2.00;;;1.80;;
13797;SDS011;6970;51.340;3.240;2023-09-18T12:12:07;4.53;;;1.95;;
13797;SDS011;6970;51.340;3.240;2023-09-18T12:14:36;3.15;;;1.83;;
13797;SDS011;6970;51.340;3.240;2023-09-18T12:19:54;2.50;;;1.90;;
13797;SDS011;6970;51.340;3.240;2023-09-18T12:22:28;3.40;;;1.87;;
13797;SDS011;6970;51.340;3.240;2023-09-18T12:25:10;2.77;;;1.77;;
13797;SDS011;6970;51.340;3.240;2023-09-18T12:27:45;3.97;;;2.40;;
13797;SDS011;6970;51.340;3.240;2023-09-18T12:32:53;4.23;;;2.03;;
13797;SDS011;6970;51.340;3.240;2023-09-18T12:35:28;3.20;;;2.30;;
13797;SDS011;6970;51.340;3.240;2023-09-18T12:38:00;3.77;;;2.13;;
13797;SDS011;6970;51.340;3.240;2023-09-18T12:40:34;2.40;;;2.03;;
13797;SDS011;6970;51.340;3.240;2023-09-18T12:43:04;1.97;;;1.83;;
13797;SDS011;6970;51.340;3.240;2023-09-18T12:45:33;5.73;;;2.30;;
13797;SDS011;6970;51.340;3.240;2023-09-18T12:50:33;9.33;;;2.23;;
13797;SDS011;6970;51.340;3.240;2023-09-18T12:53:10;4.43;;;1.90;;
13797;SDS011;6970;51.340;3.240;2023-09-18T12:55:39;5.13;;;1.70;;
13797;SDS011;6970;51.340;3.240;2023-09-18T12:58:13;4.67;;;1.20;;
13797;SDS011;6970;51.340;3.240;2023-09-18T13:00:49;5.63;;;1.60;;
13797;SDS011;6970;51.340;3.240;2023-09-18T13:03:17;2.10;;;1.40;;
13797;SDS011;6970;51.340;3.240;2023-09-18T13:05:51;3.57;;;1.90;;
13797;SDS011;6970;51.340;3.240;2023-09-18T13:08:21;2.72;;;1.90;;
13797;SDS011;6970;51.340;3.240;2023-09-18T13:13:23;3.07;;;1.57;;
13797;SDS011;6970;51.340;3.240;2023-09-18T13:15:56;1.80;;;1.60;;
13797;SDS011;6970;51.340;3.240;2023-09-18T13:18:29;2.47;;;1.77;;
13797;SDS011;6970;51.340;3.240;2023-09-18T13:20:58;3.37;;;2.00;;
13797;SDS011;6970;51.340;3.240;2023-09-18T13:26:03;2.13;;;1.70;;
13797;SDS011;6970;51.340;3.240;2023-09-18T13:28:31;2.70;;;1.90;;
13797;SDS011;6970;51.340;3.240;2023-09-18T13:31:03;3.60;;;2.10;;
13797;SDS011;6970;51.340;3.240;2023-09-18T13:33:33;3.63;;;1.73;;
13797;SDS011;6970;51.340;3.240;2023-09-18T13:36:06;4.33;;;1.97;;
13797;SDS011;6970;51.340;3.240;2023-09-18T13:38:35;3.30;;;1.77;;
13797;SDS011;6970;51.340;3.240;2023-09-18T13:41:03;3.00;;;1.70;;
13797;SDS011;6970;51.340;3.240;2023-09-18T13:43:35;3.63;;;1.47;;
13797;SDS011;6970;51.340;3.240;2023-09-18T13:46:06;3.67;;;1.50;;
13797;SDS011;6970;51.340;3.240;2023-09-18T13:48:39;3.27;;;1.80;;
13797;SDS011;6970;51.340;3.240;2023-09-18T13:51:06;4.03;;;1.77;;
13797;SDS011;6970;51.340;3.240;2023-09-18T13:53:35;3.63;;;1.83;;
13797;SDS011;6970;51.340;3.240;2023-09-18T13:56:02;2.63;;;1.63;;
13797;SDS011;6970;51.340;3.240;2023-09-18T13:58:33;3.80;;;1.70;;
13797;SDS011;6970;51.340;3.240;2023-09-18T14:01:02;2.67;;;1.70;;
13797;SDS011;6970;51.340;3.240;2023-09-18T14:03:32;3.53;;;1.60;;
13797;SDS011;6970;51.340;3.240;2023-09-18T14:08:32;6.53;;;1.70;;
13797;SDS011;6970;51.340;3.240;2023-09-18T14:11:03;6.77;;;1.80;;
13797;SDS011;6970;51.340;3.240;2023-09-18T14:13:32;6.83;;;1.70;;
13797;SDS011;6970;51.340;3.240;2023-09-18T14:16:03;3.80;;;1.33;;
13797;SDS011;6970;51.340;3.240;2023-09-18T14:18:37;3.27;;;1.67;;
13797;SDS011;6970;51.340;3.240;2023-09-18T14:23:35;3.93;;;1.90;;
13797;SDS011;6970;51.340;3.240;2023-09-18T14:28:40;5.23;;;1.70;;
13797;SDS011;6970;51.340;3.240;2023-09-18T14:31:08;4.30;;;2.13;;
13797;SDS011;6970;51.340;3.240;2023-09-18T14:33:36;4.63;;;2.10;;
13797;SDS011;6970;51.340;3.240;2023-09-18T14:36:07;4.90;;;1.73;;
13797;SDS011;6970;51.340;3.240;2023-09-18T14:38:34;4.73;;;1.97;;
13797;SDS011;6970;51.340;3.240;2023-09-18T14:41:08;4.27;;;1.87;;
13797;SDS011;6970;51.340;3.240;2023-09-18T14:43:35;8.17;;;2.07;;
13797;SDS011;6970;51.340;3.240;2023-09-18T14:46:05;5.83;;;2.27;;
13797;SDS011;6970;51.340;3.240;2023-09-18T14:48:36;6.93;;;2.30;;
13797;SDS011;6970;51.340;3.240;2023-09-18T14:51:05;9.57;;;2.23;;
13797;SDS011;6970;51.340;3.240;2023-09-18T14:53:35;7.87;;;2.00;;
13797;SDS011;6970;51.340;3.240;2023-09-18T14:56:05;6.20;;;2.37;;
13797;SDS011;6970;51.340;3.240;2023-09-18T14:58:33;5.03;;;2.30;;
13797;SDS011;6970;51.340;3.240;2023-09-18T15:01:03;6.33;;;1.80;;
13797;SDS011;6970;51.340;3.240;2023-09-18T15:08:36;9.73;;;2.07;;
13797;SDS011;6970;51.340;3.240;2023-09-18T15:11:03;11.23;;;2.07;;
13797;SDS011;6970;51.340;3.240;2023-09-18T15:13:34;7.33;;;2.00;;
13797;SDS011;6970;51.340;3.240;2023-09-18T15:16:03;6.87;;;1.90;;
13797;SDS011;6970;51.340;3.240;2023-09-18T15:18:32;15.37;;;2.67;;
13797;SDS011;6970;51.340;3.240;2023-09-18T15:23:30;11.30;;;2.60;;
13797;SDS011;6970;51.340;3.240;2023-09-18T15:25:59;5.43;;;1.60;;
13797;SDS011;6970;51.340;3.240;2023-09-18T15:28:27;6.83;;;2.00;;
13797;SDS011;6970;51.340;3.240;2023-09-18T15:30:57;5.67;;;1.50;;
13797;SDS011;6970;51.340;3.240;2023-09-18T15:33:24;5.27;;;1.57;;
13797;SDS011;6970;51.340;3.240;2023-09-18T15:38:22;5.40;;;1.77;;
13797;SDS011;6970;51.340;3.240;2023-09-18T15:40:54;5.60;;;1.53;;
13797;SDS011;6970;51.340;3.240;2023-09-18T15:43:21;8.17;;;2.00;;
13797;SDS011;6970;51.340;3.240;2023-09-18T15:45:48;4.57;;;1.97;;
13797;SDS011;6970;51.340;3.240;2023-09-18T15:48:17;4.80;;;1.50;;
13797;SDS011;6970;51.340;3.240;2023-09-18T15:50:47;6.13;;;1.70;;
13797;SDS011;6970;51.340;3.240;2023-09-18T15:53:16;8.53;;;1.60;;
13797;SDS011;6970;51.340;3.240;2023-09-18T15:55:45;3.53;;;1.40;;
13797;SDS011;6970;51.340;3.240;2023-09-18T15:58:13;3.80;;;1.80;;
13797;SDS011;6970;51.340;3.240;2023-09-18T16:00:42;7.97;;;1.90;;
13797;SDS011;6970;51.340;3.240;2023-09-18T16:03:11;5.83;;;1.60;;
13797;SDS011;6970;51.340;3.240;2023-09-18T16:05:39;6.40;;;2.03;;
13797;SDS011;6970;51.340;3.240;2023-09-18T16:08:08;5.57;;;1.70;;
13797;SDS011;6970;51.340;3.240;2023-09-18T16:10:38;5.27;;;2.10;;
13797;SDS011;6970;51.340;3.240;2023-09-18T16:13:08;7.23;;;2.43;;
13797;SDS011;6970;51.340;3.240;2023-09-18T16:15:35;9.07;;;2.13;;
13797;SDS011;6970;51.340;3.240;2023-09-18T16:18:08;5.30;;;1.90;;
13797;SDS011;6970;51.340;3.240;2023-09-18T16:20:35;6.57;;;1.83;;
13797;SDS011;6970;51.340;3.240;2023-09-18T16:23:03;7.13;;;2.23;;
13797;SDS011;6970;51.340;3.240;2023-09-18T16:25:31;4.83;;;1.50;;
13797;SDS011;6970;51.340;3.240;2023-09-18T16:27:58;9.27;;;2.40;;
13797;SDS011;6970;51.340;3.240;2023-09-18T16:30:30;7.40;;;2.13;;
13797;SDS011;6970;51.340;3.240;2023-09-18T16:32:57;8.73;;;2.60;;
13797;SDS011;6970;51.340;3.240;2023-09-18T16:35:29;6.77;;;2.20;;
13797;SDS011;6970;51.340;3.240;2023-09-18T16:37:56;6.90;;;2.10;;
13797;SDS011;6970;51.340;3.240;2023-09-18T16:45:31;9.30;;;2.23;;
13797;SDS011;6970;51.340;3.240;2023-09-18T16:47:59;4.20;;;1.43;;
13797;SDS011;6970;51.340;3.240;2023-09-18T16:50:29;9.90;;;2.23;;
13797;SDS011;6970;51.340;3.240;2023-09-18T16:52:57;5.80;;;1.57;;
13797;SDS011;6970;51.340;3.240;2023-09-18T16:55:25;7.27;;;2.33;;
13797;SDS011;6970;51.340;3.240;2023-09-18T16:57:54;7.30;;;2.13;;
13797;SDS011;6970;51.340;3.240;2023-09-18T17:00:24;6.60;;;1.97;;
13797;SDS011;6970;51.340;3.240;2023-09-18T17:02:53;9.80;;;2.40;;
13797;SDS011;6970;51.340;3.240;2023-09-18T17:05:20;6.47;;;1.97;;
13797;SDS011;6970;51.340;3.240;2023-09-18T17:07:48;6.33;;;2.40;;
13797;SDS011;6970;51.340;3.240;2023-09-18T17:10:16;11.13;;;2.77;;
13797;SDS011;6970;51.340;3.240;2023-09-18T17:12:50;7.97;;;2.73;;
13797;SDS011;6970;51.340;3.240;2023-09-18T17:15:19;8.20;;;2.97;;
13797;SDS011;6970;51.340;3.240;2023-09-18T17:17:51;9.17;;;2.83;;
13797;SDS011;6970;51.340;3.240;2023-09-18T17:20:29;8.40;;;2.40;;
13797;SDS011;6970;51.340;3.240;2023-09-18T17:22:58;6.17;;;2.57;;
13797;SDS011;6970;51.340;3.240;2023-09-18T17:25:31;9.10;;;2.90;;
13797;SDS011;6970;51.340;3.240;2023-09-18T17:28:01;10.70;;;2.97;;
13797;SDS011;6970;51.340;3.240;2023-09-18T17:30:33;10.60;;;3.40;;
13797;SDS011;6970;51.340;3.240;2023-09-18T17:33:01;10.23;;;3.47;;
13797;SDS011;6970;51.340;3.240;2023-09-18T17:35:34;16.37;;;3.33;;
13797;SDS011;6970;51.340;3.240;2023-09-18T17:40:35;12.60;;;3.83;;
13797;SDS011;6970;51.340;3.240;2023-09-18T17:43:02;12.30;;;3.17;;
13797;SDS011;6970;51.340;3.240;2023-09-18T17:45:30;13.33;;;3.33;;
13797;SDS011;6970;51.340;3.240;2023-09-18T17:47:56;12.37;;;3.47;;
13797;SDS011;6970;51.340;3.240;2023-09-18T17:50:27;15.90;;;4.57;;
13797;SDS011;6970;51.340;3.240;2023-09-18T17:52:54;13.43;;;3.97;;